sensor_id;sensor_type;location;lat;lon;timestamp;pressure;altitude;pressure_sealevel;temperature;humidity
25350;BME280;13302;48.796;11.978;2023-04-28T00:02:13;96828.78;;;10.57;33.48
25350;BME280;13302;48.796;11.978;2023-04-28T00:05:00;96829.72;;;10.61;33.46
25350;BME280;13302;48.796;11.978;2023-04-28T00:07:48;96825.78;;;10.62;33.87
25350;BME280;13302;48.796;11.978;2023-04-28T00:10:35;96832.56;;;10.65;33.73
25350;BME280;13302;48.796;11.978;2023-04-28T00:13:22;96825.06;;;10.65;33.59
25350;BME280;13302;48.796;11.978;2023-04-28T00:16:09;96826.56;;;10.63;33.74
25350;BME280;13302;48.796;11.978;2023-04-28T00:18:56;96828.44;;;10.58;33.58
25350;BME280;13302;48.796;11.978;2023-04-28T00:21:44;96833.84;;;10.55;33.60
25350;BME280;13302;48.796;11.978;2023-04-28T00:24:31;96831.34;;;10.50;33.54
25350;BME280;13302;48.796;11.978;2023-04-28T00:27:19;96821.78;;;10.47;33.63
25350;BME280;13302;48.796;11.978;2023-04-28T00:30:07;96814.19;;;10.44;33.90
25350;BME280;13302;48.796;11.978;2023-04-28T00:32:54;96810.28;;;10.45;33.81
25350;BME280;13302;48.796;11.978;2023-04-28T00:35:41;96805.19;;;10.47;33.75
25350;BME280;13302;48.796;11.978;2023-04-28T00:38:28;96808.41;;;10.49;33.90
25350;BME280;13302;48.796;11.978;2023-04-28T00:41:15;96808.50;;;10.53;33.75
25350;BME280;13302;48.796;11.978;2023-04-28T00:44:02;96804.22;;;10.55;33.60
25350;BME280;13302;48.796;11.978;2023-04-28T00:46:49;96809.09;;;10.58;33.63
25350;BME280;13302;48.796;11.978;2023-04-28T00:49:37;96811.97;;;10.62;33.81
25350;BME280;13302;48.796;11.978;2023-04-28T00:52:24;96803.31;;;10.64;33.91
25350;BME280;13302;48.796;11.978;2023-04-28T00:55:14;96800.19;;;10.65;33.83
25350;BME280;13302;48.796;11.978;2023-04-28T00:58:01;96801.91;;;10.70;33.82
25350;BME280;13302;48.796;11.978;2023-04-28T01:00:48;96794.84;;;10.72;33.70
25350;BME280;13302;48.796;11.978;2023-04-28T01:03:37;96793.34;;;10.75;33.73
25350;BME280;13302;48.796;11.978;2023-04-28T01:06:26;96794.59;;;10.77;33.55
25350;BME280;13302;48.796;11.978;2023-04-28T01:09:15;96782.03;;;10.80;33.71
25350;BME280;13302;48.796;11.978;2023-04-28T01:12:02;96785.25;;;10.82;33.68
25350;BME280;13302;48.796;11.978;2023-04-28T01:15:03;96790.41;;;10.83;33.46
25350;BME280;13302;48.796;11.978;2023-04-28T01:17:51;96798.38;;;10.85;33.56
25350;BME280;13302;48.796;11.978;2023-04-28T01:20:38;96780.16;;;10.84;33.74
25350;BME280;13302;48.796;11.978;2023-04-28T01:23:25;96784.19;;;10.86;33.63
25350;BME280;13302;48.796;11.978;2023-04-28T01:26:12;96790.97;;;10.89;33.29
25350;BME280;13302;48.796;11.978;2023-04-28T01:28:59;96786.25;;;10.89;33.56
25350;BME280;13302;48.796;11.978;2023-04-28T01:31:47;96782.31;;;10.90;33.84
25350;BME280;13302;48.796;11.978;2023-04-28T01:34:36;96783.91;;;10.91;34.13
25350;BME280;13302;48.796;11.978;2023-04-28T01:37:25;96779.19;;;10.92;33.95
25350;BME280;13302;48.796;11.978;2023-04-28T01:40:13;96770.06;;;10.91;33.64
25350;BME280;13302;48.796;11.978;2023-04-28T01:43:00;96770.88;;;10.92;33.94
25350;BME280;13302;48.796;11.978;2023-04-28T01:45:49;96768.94;;;10.92;33.68
25350;BME280;13302;48.796;11.978;2023-04-28T01:48:37;96776.88;;;10.94;33.85
25350;BME280;13302;48.796;11.978;2023-04-28T01:51:25;96781.25;;;10.95;33.79
25350;BME280;13302;48.796;11.978;2023-04-28T01:54:13;96773.75;;;10.95;33.77
25350;BME280;13302;48.796;11.978;2023-04-28T01:57:01;96773.41;;;10.97;33.64
25350;BME280;13302;48.796;11.978;2023-04-28T01:59:50;96770.63;;;10.97;33.42
25350;BME280;13302;48.796;11.978;2023-04-28T02:02:37;96773.84;;;10.99;33.63
25350;BME280;13302;48.796;11.978;2023-04-28T02:05:24;96771.09;;;10.99;33.79
25350;BME280;13302;48.796;11.978;2023-04-28T02:08:11;96767.53;;;10.98;33.90
25350;BME280;13302;48.796;11.978;2023-04-28T02:10:58;96772.25;;;10.98;34.16
25350;BME280;13302;48.796;11.978;2023-04-28T02:13:47;96770.63;;;10.97;33.97
25350;BME280;13302;48.796;11.978;2023-04-28T02:16:34;96769.00;;;10.96;34.00
25350;BME280;13302;48.796;11.978;2023-04-28T02:19:21;96756.38;;;10.95;34.23
25350;BME280;13302;48.796;11.978;2023-04-28T02:22:08;96757.53;;;10.94;34.05
25350;BME280;13302;48.796;11.978;2023-04-28T02:24:56;96748.75;;;10.92;33.90
25350;BME280;13302;48.796;11.978;2023-04-28T02:27:43;96749.47;;;10.89;34.14
25350;BME280;13302;48.796;11.978;2023-04-28T02:30:30;96743.41;;;10.83;34.17
25350;BME280;13302;48.796;11.978;2023-04-28T02:33:17;96742.97;;;10.81;34.06
25350;BME280;13302;48.796;11.978;2023-04-28T02:36:05;96737.78;;;10.80;34.21
25350;BME280;13302;48.796;11.978;2023-04-28T02:38:53;96744.13;;;10.80;34.26
25350;BME280;13302;48.796;11.978;2023-04-28T02:41:40;96759.91;;;10.80;34.20
25350;BME280;13302;48.796;11.978;2023-04-28T02:44:27;96754.84;;;10.82;34.35
25350;BME280;13302;48.796;11.978;2023-04-28T02:47:14;96748.16;;;10.83;34.39
25350;BME280;13302;48.796;11.978;2023-04-28T02:50:01;96757.22;;;10.83;34.03
25350;BME280;13302;48.796;11.978;2023-04-28T02:52:48;96765.19;;;10.85;34.04
25350;BME280;13302;48.796;11.978;2023-04-28T02:55:36;96754.56;;;10.87;34.39
25350;BME280;13302;48.796;11.978;2023-04-28T02:58:23;96751.00;;;10.86;34.36
25350;BME280;13302;48.796;11.978;2023-04-28T03:01:10;96758.50;;;10.86;34.47
25350;BME280;13302;48.796;11.978;2023-04-28T03:03:57;96752.97;;;10.86;34.44
25350;BME280;13302;48.796;11.978;2023-04-28T03:06:44;96758.03;;;10.84;34.49
25350;BME280;13302;48.796;11.978;2023-04-28T03:09:31;96746.97;;;10.84;34.35
25350;BME280;13302;48.796;11.978;2023-04-28T03:12:18;96745.81;;;10.85;34.18
25350;BME280;13302;48.796;11.978;2023-04-28T03:15:06;96746.16;;;10.83;34.47
25350;BME280;13302;48.796;11.978;2023-04-28T03:17:59;96737.88;;;10.83;34.11
25350;BME280;13302;48.796;11.978;2023-04-28T03:20:48;96741.81;;;10.82;34.55
25350;BME280;13302;48.796;11.978;2023-04-28T03:23:35;96730.75;;;10.82;34.43
25350;BME280;13302;48.796;11.978;2023-04-28T03:26:23;96725.22;;;10.82;34.76
25350;BME280;13302;48.796;11.978;2023-04-28T03:29:11;96727.19;;;10.82;34.68
25350;BME280;13302;48.796;11.978;2023-04-28T03:31:58;96717.72;;;10.83;34.82
25350;BME280;13302;48.796;11.978;2023-04-28T03:34:45;96712.97;;;10.83;34.75
25350;BME280;13302;48.796;11.978;2023-04-28T03:37:33;96710.69;;;10.85;34.80
25350;BME280;13302;48.796;11.978;2023-04-28T03:40:20;96712.63;;;10.85;34.90
25350;BME280;13302;48.796;11.978;2023-04-28T03:43:33;96711.81;;;10.84;35.15
25350;BME280;13302;48.796;11.978;2023-04-28T03:46:41;96713.69;;;10.80;35.29
25350;BME280;13302;48.796;11.978;2023-04-28T03:49:29;96708.09;;;10.77;35.09
25350;BME280;13302;48.796;11.978;2023-04-28T03:52:16;96703.97;;;10.71;35.15
25350;BME280;13302;48.796;11.978;2023-04-28T03:55:03;96704.16;;;10.62;35.35
25350;BME280;13302;48.796;11.978;2023-04-28T03:57:51;96697.72;;;10.58;35.36
25350;BME280;13302;48.796;11.978;2023-04-28T04:00:38;96682.63;;;10.55;35.37
25350;BME280;13302;48.796;11.978;2023-04-28T04:03:25;96681.81;;;10.55;35.33
25350;BME280;13302;48.796;11.978;2023-04-28T04:06:15;96671.56;;;10.55;35.02
25350;BME280;13302;48.796;11.978;2023-04-28T04:09:02;96680.34;;;10.57;35.10
25350;BME280;13302;48.796;11.978;2023-04-28T04:11:51;96682.38;;;10.61;35.09
25350;BME280;13302;48.796;11.978;2023-04-28T04:14:38;96699.41;;;10.63;35.37
25350;BME280;13302;48.796;11.978;2023-04-28T04:17:25;96689.53;;;10.62;35.56
25350;BME280;13302;48.796;11.978;2023-04-28T04:20:12;96689.53;;;10.62;35.31
25350;BME280;13302;48.796;11.978;2023-04-28T04:23:00;96681.81;;;10.55;35.89
25350;BME280;13302;48.796;11.978;2023-04-28T04:25:48;96680.56;;;10.52;35.73
25350;BME280;13302;48.796;11.978;2023-04-28T04:28:35;96684.84;;;10.50;35.81
25350;BME280;13302;48.796;11.978;2023-04-28T04:31:24;96685.19;;;10.48;36.06
25350;BME280;13302;48.796;11.978;2023-04-28T04:34:11;96676.09;;;10.48;36.02
25350;BME280;13302;48.796;11.978;2023-04-28T04:36:58;96676.19;;;10.51;35.82
25350;BME280;13302;48.796;11.978;2023-04-28T04:39:45;96675.47;;;10.54;35.73
25350;BME280;13302;48.796;11.978;2023-04-28T04:42:34;96675.63;;;10.58;35.86
25350;BME280;13302;48.796;11.978;2023-04-28T04:45:31;96668.09;;;10.58;35.97
25350;BME280;13302;48.796;11.978;2023-04-28T04:48:18;96669.72;;;10.59;35.89
25350;BME280;13302;48.796;11.978;2023-04-28T04:51:05;96673.63;;;10.58;35.70
25350;BME280;13302;48.796;11.978;2023-04-28T04:53:54;96668.09;;;10.58;35.96
25350;BME280;13302;48.796;11.978;2023-04-28T04:56:41;96668.09;;;10.58;36.16
25350;BME280;13302;48.796;11.978;2023-04-28T04:59:30;96670.19;;;10.62;36.07
25350;BME280;13302;48.796;11.978;2023-04-28T05:02:23;96673.75;;;10.62;36.27
25350;BME280;13302;48.796;11.978;2023-04-28T05:05:11;96663.94;;;10.65;36.01
25350;BME280;13302;48.796;11.978;2023-04-28T05:08:22;96660.44;;;10.68;36.25
25350;BME280;13302;48.796;11.978;2023-04-28T05:11:09;96653.84;;;10.72;36.29
25350;BME280;13302;48.796;11.978;2023-04-28T05:13:57;96642.44;;;10.74;36.41
25350;BME280;13302;48.796;11.978;2023-04-28T05:16:44;96640.09;;;10.76;36.43
25350;BME280;13302;48.796;11.978;2023-04-28T05:19:36;96636.63;;;10.79;36.30
25350;BME280;13302;48.796;11.978;2023-04-28T05:22:23;96635.13;;;10.81;36.64
25350;BME280;13302;48.796;11.978;2023-04-28T05:25:11;96652.53;;;10.82;36.71
25350;BME280;13302;48.796;11.978;2023-04-28T05:27:58;96662.84;;;10.85;36.44
25350;BME280;13302;48.796;11.978;2023-04-28T05:30:50;96667.66;;;10.88;36.44
25350;BME280;13302;48.796;11.978;2023-04-28T05:33:37;96669.75;;;10.91;36.62
25350;BME280;13302;48.796;11.978;2023-04-28T05:36:24;96678.19;;;10.98;36.30
25350;BME280;13302;48.796;11.978;2023-04-28T05:39:12;96674.38;;;11.02;36.47
25350;BME280;13302;48.796;11.978;2023-04-28T05:42:00;96681.22;;;11.09;36.45
25350;BME280;13302;48.796;11.978;2023-04-28T05:44:49;96680.94;;;11.14;36.28
25350;BME280;13302;48.796;11.978;2023-04-28T05:47:36;96669.97;;;11.17;36.27
25350;BME280;13302;48.796;11.978;2023-04-28T05:50:24;96674.41;;;11.22;36.50
25350;BME280;13302;48.796;11.978;2023-04-28T05:53:11;96676.47;;;11.25;36.42
25350;BME280;13302;48.796;11.978;2023-04-28T05:55:58;96671.00;;;11.28;36.22
25350;BME280;13302;48.796;11.978;2023-04-28T05:58:45;96658.84;;;11.33;36.20
25350;BME280;13302;48.796;11.978;2023-04-28T06:01:34;96663.69;;;11.36;36.38
25350;BME280;13302;48.796;11.978;2023-04-28T06:04:21;96670.47;;;11.38;36.54
25350;BME280;13302;48.796;11.978;2023-04-28T06:07:09;96672.88;;;11.40;36.39
25350;BME280;13302;48.796;11.978;2023-04-28T06:09:57;96656.78;;;11.45;36.16
25350;BME280;13302;48.796;11.978;2023-04-28T06:12:44;96650.06;;;11.46;36.45
25350;BME280;13302;48.796;11.978;2023-04-28T06:15:32;96661.59;;;11.48;36.38
25350;BME280;13302;48.796;11.978;2023-04-28T06:18:19;96668.72;;;11.49;36.18
25350;BME280;13302;48.796;11.978;2023-04-28T06:21:06;96672.78;;;11.52;36.20
25350;BME280;13302;48.796;11.978;2023-04-28T06:23:54;96673.09;;;11.50;36.56
25350;BME280;13302;48.796;11.978;2023-04-28T06:26:41;96677.47;;;11.51;36.72
25350;BME280;13302;48.796;11.978;2023-04-28T06:29:28;96680.59;;;11.50;36.63
25350;BME280;13302;48.796;11.978;2023-04-28T06:32:16;96677.41;;;11.48;36.67
25350;BME280;13302;48.796;11.978;2023-04-28T06:35:03;96677.41;;;11.48;36.86
25350;BME280;13302;48.796;11.978;2023-04-28T06:37:50;96668.66;;;11.46;37.01
25350;BME280;13302;48.796;11.978;2023-04-28T06:40:37;96667.50;;;11.47;36.99
25350;BME280;13302;48.796;11.978;2023-04-28T06:43:26;96677.75;;;11.46;37.33
25350;BME280;13302;48.796;11.978;2023-04-28T06:46:27;96669.72;;;11.41;37.20
25350;BME280;13302;48.796;11.978;2023-04-28T06:49:15;96670.47;;;11.38;37.35
25350;BME280;13302;48.796;11.978;2023-04-28T06:52:02;96670.81;;;11.37;37.59
25350;BME280;13302;48.796;11.978;2023-04-28T06:54:49;96673.94;;;11.35;37.49
25350;BME280;13302;48.796;11.978;2023-04-28T06:57:37;96675.09;;;11.34;37.75
25350;BME280;13302;48.796;11.978;2023-04-28T07:00:24;96669.56;;;11.34;37.63
25350;BME280;13302;48.796;11.978;2023-04-28T07:03:11;96680.28;;;11.36;37.70
25350;BME280;13302;48.796;11.978;2023-04-28T07:05:59;96687.06;;;11.38;37.80
25350;BME280;13302;48.796;11.978;2023-04-28T07:08:46;96692.69;;;11.42;37.91
25350;BME280;13302;48.796;11.978;2023-04-28T07:11:33;96690.78;;;11.46;38.04
25350;BME280;13302;48.796;11.978;2023-04-28T07:14:20;96694.44;;;11.50;38.21
25350;BME280;13302;48.796;11.978;2023-04-28T07:17:07;96699.97;;;11.50;38.37
25350;BME280;13302;48.796;11.978;2023-04-28T07:19:54;96705.50;;;11.50;38.33
25350;BME280;13302;48.796;11.978;2023-04-28T07:22:41;96713.00;;;11.49;38.40
25350;BME280;13302;48.796;11.978;2023-04-28T07:25:28;96713.38;;;11.48;38.51
25350;BME280;13302;48.796;11.978;2023-04-28T07:28:15;96716.16;;;11.48;38.88
25350;BME280;13302;48.796;11.978;2023-04-28T07:31:03;96716.59;;;11.50;38.72
25350;BME280;13302;48.796;11.978;2023-04-28T07:33:50;96716.97;;;11.48;38.96
25350;BME280;13302;48.796;11.978;2023-04-28T07:36:37;96709.09;;;11.50;39.12
25350;BME280;13302;48.796;11.978;2023-04-28T07:39:24;96703.91;;;11.49;39.69
25350;BME280;13302;48.796;11.978;2023-04-28T07:42:11;96707.13;;;11.51;39.33
25350;BME280;13302;48.796;11.978;2023-04-28T07:44:58;96701.59;;;11.51;39.61
25350;BME280;13302;48.796;11.978;2023-04-28T07:47:45;96701.94;;;11.49;39.79
25350;BME280;13302;48.796;11.978;2023-04-28T07:50:33;96694.09;;;11.51;39.62
25350;BME280;13302;48.796;11.978;2023-04-28T07:53:20;96693.28;;;11.51;39.74
25350;BME280;13302;48.796;11.978;2023-04-28T07:56:07;96687.44;;;11.53;39.88
25350;BME280;13302;48.796;11.978;2023-04-28T07:58:54;96690.19;;;11.53;39.65
25350;BME280;13302;48.796;11.978;2023-04-28T08:01:42;96687.50;;;11.56;40.00
25350;BME280;13302;48.796;11.978;2023-04-28T08:04:29;96679.63;;;11.58;40.22
25350;BME280;13302;48.796;11.978;2023-04-28T08:07:19;96683.66;;;11.61;40.24
25350;BME280;13302;48.796;11.978;2023-04-28T08:10:08;96686.41;;;11.61;40.14
25350;BME280;13302;48.796;11.978;2023-04-28T08:12:56;96680.09;;;11.60;40.53
25350;BME280;13302;48.796;11.978;2023-04-28T08:15:43;96674.63;;;11.64;40.27
25350;BME280;13302;48.796;11.978;2023-04-28T08:18:30;96663.16;;;11.65;40.50
25350;BME280;13302;48.796;11.978;2023-04-28T08:21:17;96667.59;;;11.70;40.37
25350;BME280;13302;48.796;11.978;2023-04-28T08:24:04;96676.00;;;11.73;40.64
25350;BME280;13302;48.796;11.978;2023-04-28T08:26:52;96668.59;;;11.77;40.65
25350;BME280;13302;48.796;11.978;2023-04-28T08:29:40;96672.94;;;11.78;40.62
25350;BME280;13302;48.796;11.978;2023-04-28T08:32:27;96671.72;;;11.76;41.06
25350;BME280;13302;48.796;11.978;2023-04-28T08:35:15;96662.31;;;11.80;40.84
25350;BME280;13302;48.796;11.978;2023-04-28T08:38:01;96655.50;;;11.78;41.35
25350;BME280;13302;48.796;11.978;2023-04-28T08:40:49;96670.16;;;11.78;41.43
25350;BME280;13302;48.796;11.978;2023-04-28T08:43:36;96663.13;;;11.81;41.21
25350;BME280;13302;48.796;11.978;2023-04-28T08:46:24;96656.78;;;11.80;41.21
25350;BME280;13302;48.796;11.978;2023-04-28T08:49:17;96654.88;;;11.84;41.29
25350;BME280;13302;48.796;11.978;2023-04-28T08:52:10;96652.91;;;11.85;41.24
25350;BME280;13302;48.796;11.978;2023-04-28T08:54:59;96658.06;;;11.86;41.58
25350;BME280;13302;48.796;11.978;2023-04-28T08:57:50;96653.34;;;11.87;41.63
25350;BME280;13302;48.796;11.978;2023-04-28T09:00:37;96652.19;;;11.88;41.91
25350;BME280;13302;48.796;11.978;2023-04-28T09:03:25;96645.91;;;11.91;41.93
25350;BME280;13302;48.796;11.978;2023-04-28T09:06:12;96640.81;;;11.93;41.79
25350;BME280;13302;48.796;11.978;2023-04-28T09:09:22;96639.28;;;11.95;41.71
25350;BME280;13302;48.796;11.978;2023-04-28T09:12:11;96635.41;;;12.00;42.01
25350;BME280;13302;48.796;11.978;2023-04-28T09:14:58;96628.38;;;12.06;42.26
25350;BME280;13302;48.796;11.978;2023-04-28T09:17:50;96633.22;;;12.09;42.24
25350;BME280;13302;48.796;11.978;2023-04-28T09:20:37;96640.78;;;12.12;42.12
25350;BME280;13302;48.796;11.978;2023-04-28T09:23:24;96638.09;;;12.16;42.06
25350;BME280;13302;48.796;11.978;2023-04-28T09:26:12;96631.88;;;12.22;42.50
25350;BME280;13302;48.796;11.978;2023-04-28T09:29:11;96631.16;;;12.25;42.25
25350;BME280;13302;48.796;11.978;2023-04-28T09:32:19;96630.00;;;12.26;42.06
25350;BME280;13302;48.796;11.978;2023-04-28T09:35:11;96631.63;;;12.31;42.22
25350;BME280;13302;48.796;11.978;2023-04-28T09:37:59;96620.63;;;12.34;42.34
25350;BME280;13302;48.796;11.978;2023-04-28T09:40:57;96622.97;;;12.32;42.38
25350;BME280;13302;48.796;11.978;2023-04-28T09:43:44;96622.28;;;12.39;42.50
25350;BME280;13302;48.796;11.978;2023-04-28T09:46:32;96619.94;;;12.41;42.44
25350;BME280;13302;48.796;11.978;2023-04-28T09:49:19;96617.66;;;12.43;42.81
25350;BME280;13302;48.796;11.978;2023-04-28T09:52:12;96610.09;;;12.43;42.65
25350;BME280;13302;48.796;11.978;2023-04-28T09:55:01;96614.56;;;12.48;42.59
25350;BME280;13302;48.796;11.978;2023-04-28T09:57:51;96615.00;;;12.50;42.46
25350;BME280;13302;48.796;11.978;2023-04-28T10:00:40;96613.50;;;12.56;42.71
25350;BME280;13302;48.796;11.978;2023-04-28T10:03:29;96596.16;;;12.59;42.78
25350;BME280;13302;48.796;11.978;2023-04-28T10:06:16;96602.09;;;12.61;42.79
25350;BME280;13302;48.796;11.978;2023-04-28T10:09:04;96618.75;;;12.61;42.88
25350;BME280;13302;48.796;11.978;2023-04-28T10:11:52;96593.78;;;12.61;42.94
25350;BME280;13302;48.796;11.978;2023-04-28T10:14:40;96612.03;;;12.62;42.96
25350;BME280;13302;48.796;11.978;2023-04-28T10:17:28;96605.69;;;12.62;42.66
25350;BME280;13302;48.796;11.978;2023-04-28T10:20:15;96588.25;;;12.61;42.94
25350;BME280;13302;48.796;11.978;2023-04-28T10:29:31;96592.88;;;12.54;43.28
25350;BME280;13302;48.796;11.978;2023-04-28T10:32:21;96605.50;;;12.51;43.51
25350;BME280;13302;48.796;11.978;2023-04-28T10:38:19;96597.56;;;12.50;43.35
25350;BME280;13302;48.796;11.978;2023-04-28T10:41:30;96597.06;;;12.44;43.48
25350;BME280;13302;48.796;11.978;2023-04-28T10:47:14;96582.09;;;12.49;43.81
25350;BME280;13302;48.796;11.978;2023-04-28T10:50:08;96568.22;;;12.49;43.68
25350;BME280;13302;48.796;11.978;2023-04-28T10:52:57;96578.56;;;12.52;43.86
25350;BME280;13302;48.796;11.978;2023-04-28T10:55:44;96567.88;;;12.50;43.86
25350;BME280;13302;48.796;11.978;2023-04-28T10:58:31;96567.13;;;12.53;44.08
25350;BME280;13302;48.796;11.978;2023-04-28T11:04:12;96561.94;;;12.52;44.15
25350;BME280;13302;48.796;11.978;2023-04-28T11:07:10;96566.69;;;12.51;44.36
25350;BME280;13302;48.796;11.978;2023-04-28T11:10:00;96564.69;;;12.52;44.31
25350;BME280;13302;48.796;11.978;2023-04-28T11:13:28;96568.72;;;12.54;44.06
25350;BME280;13302;48.796;11.978;2023-04-28T11:16:21;96553.69;;;12.55;44.37
25350;BME280;13302;48.796;11.978;2023-04-28T11:19:11;96555.22;;;12.53;44.40
25350;BME280;13302;48.796;11.978;2023-04-28T11:22:12;96549.25;;;12.51;44.67
25350;BME280;13302;48.796;11.978;2023-04-28T11:25:01;96553.25;;;12.53;44.74
25350;BME280;13302;48.796;11.978;2023-04-28T11:27:50;96554.06;;;12.54;44.96
25350;BME280;13302;48.796;11.978;2023-04-28T11:30:38;96545.69;;;12.50;44.78
25350;BME280;13302;48.796;11.978;2023-04-28T11:33:26;96547.66;;;12.50;44.83
25350;BME280;13302;48.796;11.978;2023-04-28T11:36:30;96550.47;;;12.53;44.89
25350;BME280;13302;48.796;11.978;2023-04-28T11:39:25;96549.72;;;12.56;44.73
25350;BME280;13302;48.796;11.978;2023-04-28T11:42:14;96528.84;;;12.62;44.86
25350;BME280;13302;48.796;11.978;2023-04-28T11:45:03;96546.22;;;12.59;45.42
25350;BME280;13302;48.796;11.978;2023-04-28T11:47:50;96550.28;;;12.65;45.36
25350;BME280;13302;48.796;11.978;2023-04-28T11:50:37;96546.75;;;12.68;45.44
25350;BME280;13302;48.796;11.978;2023-04-28T11:53:43;96541.59;;;12.67;45.21
25350;BME280;13302;48.796;11.978;2023-04-28T11:56:30;96525.31;;;12.65;45.47
25350;BME280;13302;48.796;11.978;2023-04-28T11:59:25;96540.41;;;12.68;45.84
25350;BME280;13302;48.796;11.978;2023-04-28T12:02:13;96540.78;;;12.66;45.57
25350;BME280;13302;48.796;11.978;2023-04-28T12:05:07;96551.13;;;12.69;45.29
25350;BME280;13302;48.796;11.978;2023-04-28T12:07:54;96536.50;;;12.72;45.58
25350;BME280;13302;48.796;11.978;2023-04-28T12:10:42;96540.94;;;12.77;45.40
25350;BME280;13302;48.796;11.978;2023-04-28T12:13:29;96540.63;;;12.82;45.52
25350;BME280;13302;48.796;11.978;2023-04-28T12:16:36;96534.31;;;12.85;45.34
25350;BME280;13302;48.796;11.978;2023-04-28T12:19:24;96539.56;;;12.90;45.39
25350;BME280;13302;48.796;11.978;2023-04-28T12:22:11;96532.44;;;12.93;45.48
25350;BME280;13302;48.796;11.978;2023-04-28T12:25:02;96535.22;;;12.93;45.61
25350;BME280;13302;48.796;11.978;2023-04-28T12:28:04;96544.41;;;12.97;45.81
25350;BME280;13302;48.796;11.978;2023-04-28T12:31:03;96542.44;;;12.97;45.69
25350;BME280;13302;48.796;11.978;2023-04-28T12:33:51;96554.38;;;13.01;45.85
25350;BME280;13302;48.796;11.978;2023-04-28T12:36:38;96559.19;;;13.04;46.02
25350;BME280;13302;48.796;11.978;2023-04-28T12:39:25;96563.25;;;13.10;45.62
25350;BME280;13302;48.796;11.978;2023-04-28T12:42:12;96561.75;;;13.16;45.81
25350;BME280;13302;48.796;11.978;2023-04-28T12:45:00;96553.03;;;13.18;45.50
25350;BME280;13302;48.796;11.978;2023-04-28T12:47:47;96543.91;;;13.17;45.63
25350;BME280;13302;48.796;11.978;2023-04-28T12:50:34;96552.72;;;13.23;45.72
25350;BME280;13302;48.796;11.978;2023-04-28T12:53:22;96550.38;;;13.25;45.31
25350;BME280;13302;48.796;11.978;2023-04-28T12:58:56;96550.84;;;13.30;45.83
25350;BME280;13302;48.796;11.978;2023-04-28T13:01:43;96548.09;;;13.30;45.47
25350;BME280;13302;48.796;11.978;2023-04-28T13:04:30;96547.31;;;13.33;45.43
25350;BME280;13302;48.796;11.978;2023-04-28T13:07:18;96542.22;;;13.36;45.59
25350;BME280;13302;48.796;11.978;2023-04-28T13:10:06;96546.63;;;13.40;45.62
25350;BME280;13302;48.796;11.978;2023-04-28T13:12:53;96543.09;;;13.43;45.61
25350;BME280;13302;48.796;11.978;2023-04-28T13:15:40;96539.16;;;13.44;45.63
25350;BME280;13302;48.796;11.978;2023-04-28T13:18:27;96530.06;;;13.47;45.60
25350;BME280;13302;48.796;11.978;2023-04-28T13:21:16;96538.00;;;13.49;45.51
25350;BME280;13302;48.796;11.978;2023-04-28T13:24:03;96547.56;;;13.51;45.73
25350;BME280;13302;48.796;11.978;2023-04-28T13:26:51;96534.91;;;13.54;45.60
25350;BME280;13302;48.796;11.978;2023-04-28T13:29:38;96527.00;;;13.56;45.69
25350;BME280;13302;48.796;11.978;2023-04-28T13:32:25;96530.97;;;13.58;45.89
25350;BME280;13302;48.796;11.978;2023-04-28T13:35:14;96524.69;;;13.61;45.63
25350;BME280;13302;48.796;11.978;2023-04-28T13:38:01;96526.69;;;13.64;46.02
25350;BME280;13302;48.796;11.978;2023-04-28T13:40:48;96523.16;;;13.67;46.00
25350;BME280;13302;48.796;11.978;2023-04-28T13:43:35;96526.38;;;13.69;45.92
25350;BME280;13302;48.796;11.978;2023-04-28T13:46:22;96527.56;;;13.72;45.72
25350;BME280;13302;48.796;11.978;2023-04-28T13:49:09;96536.72;;;13.72;46.02
25350;BME280;13302;48.796;11.978;2023-04-28T13:51:56;96526.44;;;13.76;46.26
25350;BME280;13302;48.796;11.978;2023-04-28T13:54:43;96520.50;;;13.78;46.21
25350;BME280;13302;48.796;11.978;2023-04-28T13:57:31;96516.53;;;13.79;46.06
25350;BME280;13302;48.796;11.978;2023-04-28T14:00:18;96505.03;;;13.80;46.42
25350;BME280;13302;48.796;11.978;2023-04-28T14:03:10;96502.69;;;13.83;46.28
25350;BME280;13302;48.796;11.978;2023-04-28T14:05:58;96497.53;;;13.85;46.19
25350;BME280;13302;48.796;11.978;2023-04-28T14:08:45;96501.16;;;13.89;46.37
25350;BME280;13302;48.796;11.978;2023-04-28T14:11:32;96506.75;;;13.92;46.44
25350;BME280;13302;48.796;11.978;2023-04-28T14:14:19;96505.97;;;13.95;46.35
25350;BME280;13302;48.796;11.978;2023-04-28T14:17:07;96497.28;;;13.97;46.39
25350;BME280;13302;48.796;11.978;2023-04-28T14:19:54;96504.84;;;14.00;46.69
25350;BME280;13302;48.796;11.978;2023-04-28T14:22:42;96502.06;;;14.00;46.37
25350;BME280;13302;48.796;11.978;2023-04-28T14:25:29;96499.34;;;14.03;46.38
25350;BME280;13302;48.796;11.978;2023-04-28T14:28:16;96504.09;;;14.03;46.38
25350;BME280;13302;48.796;11.978;2023-04-28T14:31:03;96500.91;;;14.04;46.43
25350;BME280;13302;48.796;11.978;2023-04-28T14:33:53;96498.13;;;14.04;46.80
25350;BME280;13302;48.796;11.978;2023-04-28T14:36:40;96500.53;;;14.06;46.39
25350;BME280;13302;48.796;11.978;2023-04-28T14:39:28;96502.16;;;14.07;46.41
25350;BME280;13302;48.796;11.978;2023-04-28T14:42:15;96505.31;;;14.09;46.50
25350;BME280;13302;48.796;11.978;2023-04-28T14:45:06;96497.78;;;14.09;46.63
25350;BME280;13302;48.796;11.978;2023-04-28T14:47:54;96492.22;;;14.09;46.60
25350;BME280;13302;48.796;11.978;2023-04-28T14:50:42;96476.34;;;14.10;46.66
25350;BME280;13302;48.796;11.978;2023-04-28T14:53:30;96491.44;;;14.09;46.49
25350;BME280;13302;48.796;11.978;2023-04-28T14:56:17;96488.66;;;14.09;46.62
25350;BME280;13302;48.796;11.978;2023-04-28T14:59:06;96481.91;;;14.10;46.59
25350;BME280;13302;48.796;11.978;2023-04-28T15:01:54;96478.34;;;14.09;46.59